Time;durP1;ratioP1;P1;durP2;ratioP2;P2;SDS_P1;SDS_P2;PMS_P1;PMS_P2;Temp;Humidity;BMP_temperature;BMP_pressure;BME280_temperature;BME280_humidity;BME280_pressure;Samples;Min_cycle;Max_cycle;Signal;HPM_P1;HPM_P2
2022/06/16 00:01:37;;;;;;;8.40;6.63;;;;;;;18.78;78.57;95287.47;5074899;28;20519;-81
2022/06/16 00:04:04;;;;;;;7.53;6.90;;;;;;;18.81;78.71;95287.16;5074855;28;20880;-81
2022/06/16 00:06:31;;;;;;;7.77;7.07;;;;;;;18.82;79.08;95287.00;5039744;28;20819;-81
2022/06/16 00:08:59;;;;;;;7.37;6.20;;;;;;;18.82;78.60;95279.00;5075008;28;20447;-81
2022/06/16 00:11:27;;;;;;;6.57;6.07;;;;;;;18.83;78.69;95287.81;5075009;28;20450;-81
2022/06/16 00:13:54;;;;;;;8.40;6.67;;;;;;;18.81;78.61;95281.84;5074771;28;20935;-81
2022/06/16 00:16:23;;;;;;;8.70;6.43;;;;;;;18.82;78.37;95283.50;5074777;28;20455;-81
2022/06/16 00:18:50;;;;;;;7.83;6.90;;;;;;;18.84;78.82;95276.19;5074817;28;20515;-81
2022/06/16 00:21:18;;;;;;;8.33;6.13;;;;;;;18.83;78.65;95282.50;5074761;28;20533;-81
2022/06/16 00:23:45;;;;;;;7.87;6.60;;;;;;;18.78;78.60;95284.81;5074360;28;20464;-81
2022/06/16 00:26:13;;;;;;;6.80;5.60;;;;;;;18.76;78.60;95284.97;5074218;28;20950;-81
2022/06/16 00:28:42;;;;;;;6.67;6.07;;;;;;;18.72;78.51;95278.34;5074486;28;20961;-81
2022/06/16 00:31:12;;;;;;;6.80;6.20;;;;;;;18.70;78.50;95287.50;5074684;28;20519;-81
2022/06/16 00:33:39;;;;;;;7.40;6.67;;;;;;;18.67;78.43;95285.19;5039276;28;20441;-81
2022/06/16 00:36:07;;;;;;;6.40;5.90;;;;;;;18.66;78.72;95283.53;5074422;28;20439;-81
2022/06/16 00:38:34;;;;;;;7.10;6.30;;;;;;;18.65;78.76;95281.88;5073826;28;20498;-81
2022/06/16 00:41:01;;;;;;;7.67;6.97;;;;;;;18.60;78.37;95281.53;5074619;28;20465;-81
2022/06/16 00:43:28;;;;;;;9.20;6.60;;;;;;;18.54;78.51;95285.69;5074267;28;20483;-81
2022/06/16 00:46:01;;;;;;;6.77;6.17;;;;;;;18.53;78.79;95278.72;5074230;28;20443;-81
2022/06/16 00:48:32;;;;;;;7.63;6.83;;;;;;;18.52;78.95;95291.19;5055519;28;20440;-81
2022/06/16 00:51:05;;;;;;;8.93;6.73;;;;;;;18.53;79.13;95289.34;5073897;28;20439;-81
2022/06/16 00:53:33;;;;;;;8.10;7.37;;;;;;;18.48;79.17;95276.53;5038904;28;20850;-81
2022/06/16 00:56:00;;;;;;;8.40;6.00;;;;;;;18.40;79.64;95278.41;5073936;28;20495;-81
2022/06/16 00:58:30;;;;;;;9.97;7.20;;;;;;;18.40;79.66;95273.91;5073896;28;20484;-81
2022/06/16 01:00:58;;;;;;;9.43;6.83;;;;;;;18.38;79.84;95273.25;5073279;28;20438;-82
2022/06/16 01:06:20;;;;;;;7.50;6.77;;;;;;;18.33;79.77;95275.59;5073645;28;20462;-81
2022/06/16 01:08:49;;;;;;;10.53;6.60;;;;;;;18.30;80.30;95269.78;5073933;28;20536;-81
2022/06/16 01:14:11;;;;;;;10.03;6.97;;;;;;;18.27;80.63;95276.25;5073377;28;20973;-81
2022/06/16 01:16:47;;;;;;;7.90;6.47;;;;;;;18.28;80.37;95272.63;5073711;28;20880;-81
2022/06/16 01:19:38;;;;;;;7.67;6.90;;;;;;;18.30;80.63;95267.13;5073195;28;20484;-81
2022/06/16 01:22:10;;;;;;;7.27;6.67;;;;;;;18.30;80.91;95272.44;5073785;28;20538;-81
2022/06/16 01:24:57;;;;;;;7.17;6.53;;;;;;;18.29;80.82;95274.28;5073395;28;20444;-81
2022/06/16 01:27:54;;;;;;;7.50;6.80;;;;;;;18.22;80.97;95262.66;5073420;28;20480;-81
2022/06/16 01:30:33;;;;;;;7.50;6.90;;;;;;;18.19;81.27;95270.94;5011397;28;20635;-81
2022/06/16 01:33:07;;;;;;;7.93;7.20;;;;;;;18.18;81.85;95263.97;5011388;28;20526;-81
2022/06/16 01:35:38;;;;;;;9.10;6.83;;;;;;;18.19;81.62;95270.94;5011429;28;20457;-81
2022/06/16 01:38:13;;;;;;;7.17;6.43;;;;;;;18.19;81.73;95266.44;5010802;28;20913;-81
2022/06/16 01:40:46;;;;;;;7.60;7.00;;;;;;;18.20;81.56;95256.66;5011359;28;20454;-81
2022/06/16 01:43:19;;;;;;;8.80;6.90;;;;;;;18.15;82.02;95262.47;4962307;28;20432;-81
2022/06/16 01:45:54;;;;;;;8.33;7.00;;;;;;;18.13;82.01;95253.84;5011207;28;20944;-82
2022/06/16 01:48:23;;;;;;;10.17;8.50;;;;;;;17.68;84.80;95254.34;5010863;28;20547;-82
2022/06/16 01:50:54;;;;;;;14.17;7.57;;;;;;;17.84;84.24;95258.84;5010979;28;20457;-82
2022/06/16 01:53:26;;;;;;;8.43;7.43;;;;;;;17.88;84.05;95253.03;5011107;28;20474;-82
2022/06/16 01:56:00;;;;;;;8.10;7.40;;;;;;;17.97;84.49;95253.03;5010864;28;20819;-82
2022/06/16 01:58:33;;;;;;;8.07;7.30;;;;;;;17.98;84.24;95252.88;5010579;28;20954;-82
2022/06/16 02:01:08;;;;;;;9.33;6.37;;;;;;;18.03;84.34;95244.41;5010876;28;20450;-82
2022/06/16 02:03:40;;;;;;;7.93;7.33;;;;;;;18.04;83.80;95243.41;5010944;28;20494;-82
2022/06/16 02:06:13;;;;;;;7.80;7.20;;;;;;;18.02;84.49;95242.75;5020395;28;20446;-80
2022/06/16 02:08:47;;;;;;;8.63;6.87;;;;;;;18.02;84.50;95245.41;5072572;28;20456;-80
2022/06/16 02:11:18;;;;;;;8.43;7.00;;;;;;;17.98;84.85;95244.09;5072641;28;20946;-80
2022/06/16 02:13:53;;;;;;;9.03;7.20;;;;;;;17.99;84.92;95248.41;5072772;28;20517;-80
2022/06/16 02:16:24;;;;;;;8.30;7.60;;;;;;;17.97;85.11;95247.72;5072866;28;20433;-80
2022/06/16 02:18:54;;;;;;;12.87;9.27;;;;;;;17.90;85.27;95252.84;5072571;28;20474;-80
2022/06/16 02:21:27;;;;;;;9.13;8.10;;;;;;;17.89;85.88;95248.53;5072317;28;20446;-80
2022/06/16 02:23:55;;;;;;;9.60;7.43;;;;;;;17.88;85.73;95253.03;5072491;28;20452;-80
2022/06/16 02:26:22;;;;;;;10.77;6.83;;;;;;;17.85;86.62;95258.66;5072541;28;20514;-80
2022/06/16 02:28:51;;;;;;;8.20;7.40;;;;;;;17.88;86.41;95258.34;5072298;28;20534;-80
2022/06/16 02:31:46;;;;;;;9.07;7.30;;;;;;;17.94;86.41;95259.53;5037552;28;20514;-80
2022/06/16 02:34:22;;;;;;;9.40;7.43;;;;;;;17.97;85.80;95247.72;5072134;28;20457;-80
2022/06/16 02:37:03;;;;;;;10.13;8.27;;;;;;;18.03;85.88;95265.66;5072296;28;20446;-80
2022/06/16 02:39:47;;;;;;;9.20;8.30;;;;;;;18.01;85.95;95267.66;5036749;28;20484;-81
2022/06/16 02:42:20;;;;;;;11.10;7.50;;;;;;;18.06;86.58;95266.16;5072264;28;20529;-80
2022/06/16 02:44:59;;;;;;;9.33;8.20;;;;;;;18.08;86.29;95271.28;5072048;28;20450;-80
2022/06/16 02:47:46;;;;;;;9.27;8.47;;;;;;;18.10;85.67;95269.28;5072200;28;20452;-80
2022/06/16 02:50:25;;;;;;;15.67;8.47;;;;;;;18.16;85.89;95271.28;5071888;28;20444;-80
2022/06/16 02:53:01;;;;;;;9.43;7.80;;;;;;;18.16;86.07;95261.47;5072353;28;20477;-80
2022/06/16 02:55:34;;;;;;;8.50;7.80;;;;;;;18.19;85.61;95276.25;5072255;28;20472;-79
2022/06/16 02:58:03;;;;;;;8.20;7.40;;;;;;;18.18;86.51;95279.91;5072801;28;20440;-79
2022/06/16 03:00:35;;;;;;;9.57;8.63;;;;;;;18.22;86.10;95278.59;5074271;28;20444;-79
2022/06/16 03:03:21;;;;;;;10.83;8.40;;;;;;;18.24;86.24;95279.25;5077462;28;20445;-80
2022/06/16 03:09:10;;;;;;;11.50;10.33;;;;;;;18.26;85.98;95283.41;5078317;28;20449;-79
2022/06/16 03:11:38;;;;;;;16.87;9.83;;;;;;;18.24;85.53;95288.06;5078703;28;20527;-80
2022/06/16 03:14:06;;;;;;;8.80;8.00;;;;;;;18.23;85.59;95282.91;5078063;28;20445;-80
2022/06/16 03:16:33;;;;;;;11.10;9.13;;;;;;;18.21;85.32;95284.88;5078015;28;20443;-79
2022/06/16 03:19:01;;;;;;;18.37;8.73;;;;;;;18.19;85.21;95281.56;5078149;28;20576;-79
2022/06/16 03:21:28;;;;;;;10.30;9.33;;;;;;;18.17;85.66;95283.56;5078110;28;20444;-80
2022/06/16 03:23:55;;;;;;;13.60;9.03;;;;;;;18.19;85.50;95279.75;5078230;28;20458;-80
2022/06/16 03:26:22;;;;;;;9.87;8.47;;;;;;;18.17;85.87;95281.72;5078481;28;20491;-80
2022/06/16 03:28:49;;;;;;;9.73;8.83;;;;;;;18.18;86.01;95282.56;5078686;28;20413;-80
2022/06/16 03:31:16;;;;;;;12.60;9.23;;;;;;;18.19;86.17;95278.91;5078351;28;20455;-81
2022/06/16 03:33:43;;;;;;;9.40;8.60;;;;;;;18.24;86.06;95272.13;5078148;28;20447;-80
2022/06/16 03:36:12;;;;;;;8.63;7.83;;;;;;;18.36;86.27;95275.25;5078463;28;20454;-80
2022/06/16 03:38:42;;;;;;;10.20;8.53;;;;;;;18.52;86.76;95274.41;5083240;28;20463;-85
2022/06/16 03:41:09;;;;;;;15.97;9.17;;;;;;;18.72;86.75;95266.88;5087476;28;20445;-86
2022/06/16 03:43:36;;;;;;;11.03;9.60;;;;;;;18.96;85.38;95271.31;5085491;28;20447;-87
2022/06/16 03:46:03;;;;;;;11.03;9.97;;;;;;;19.10;84.31;95266.09;5079128;28;20463;-79
2022/06/16 03:48:30;;;;;;;11.20;8.83;;;;;;;19.33;82.76;95278.63;5077075;28;20434;-79
2022/06/16 03:50:57;;;;;;;10.13;8.80;;;;;;;19.46;81.71;95274.41;5076258;28;20445;-77
2022/06/16 03:53:26;;;;;;;14.67;8.70;;;;;;;19.62;80.78;95273.50;5041263;28;20494;-77
2022/06/16 03:55:53;;;;;;;11.83;8.90;;;;;;;19.83;79.79;95277.34;5079414;28;20459;-77
2022/06/16 03:58:19;;;;;;;8.80;8.00;;;;;;;20.22;81.40;95287.88;5078094;28;20444;-81
2022/06/16 04:00:46;;;;;;;12.90;8.20;;;;;;;20.78;78.08;95288.38;5076059;28;20468;-82
2022/06/16 04:05:58;;;;;;;10.87;8.67;;;;;;;21.61;72.83;95293.41;5075967;28;20417;-80
2022/06/16 04:08:26;;;;;;;12.47;9.03;;;;;;;21.81;72.12;95297.13;5076046;28;20807;-80
2022/06/16 04:10:53;;;;;;;10.20;9.20;;;;;;;21.90;71.88;95298.66;5075780;28;20818;-81
2022/06/16 04:13:21;;;;;;;13.17;10.20;;;;;;;21.86;70.83;95296.56;5075228;28;20448;-81
2022/06/16 04:15:48;;;;;;;9.93;8.93;;;;;;;21.60;71.06;95300.59;5075560;28;20805;-85
2022/06/16 04:18:14;;;;;;;11.43;10.10;;;;;;;21.40;73.96;95294.19;5040905;28;20456;-79
2022/06/16 04:20:41;;;;;;;10.73;9.53;;;;;;;21.30;76.13;95289.13;5075871;28;20469;-80
2022/06/16 04:23:10;;;;;;;12.93;8.63;;;;;;;21.45;75.21;95291.78;5040618;28;20873;-81
2022/06/16 04:25:53;;;;;;;9.83;8.07;;;;;;;21.65;74.39;95287.50;5076131;28;20457;-80
2022/06/16 04:28:20;;;;;;;10.57;8.43;;;;;;;21.83;73.14;95289.75;5075789;28;20467;-80
2022/06/16 04:30:47;;;;;;;12.10;8.40;;;;;;;22.00;72.34;95290.34;5075496;28;20433;-79
2022/06/16 04:33:14;;;;;;;12.63;9.23;;;;;;;21.80;72.41;95308.00;5075495;28;20452;-77
2022/06/16 04:35:41;;;;;;;10.70;9.60;;;;;;;21.77;72.47;95287.00;5075516;28;20433;-90
2022/06/16 04:38:08;;;;;;;10.43;9.30;;;;;;;22.08;71.84;95292.91;5074228;28;20484;-80
2022/06/16 04:40:35;;;;;;;11.40;8.47;;;;;;;22.36;70.62;95294.81;5060353;28;20481;-84
2022/06/16 04:43:04;;;;;;;10.57;9.13;;;;;;;22.62;69.78;95295.03;5040162;28;20465;-80
2022/06/16 04:45:31;;;;;;;13.90;9.43;;;;;;;22.73;68.67;95286.47;5073455;28;21004;-79
2022/06/16 04:47:58;;;;;;;14.37;8.70;;;;;;;22.88;69.15;95288.25;5064032;28;20464;-80
2022/06/16 04:50:25;;;;;;;12.00;9.67;;;;;;;23.02;67.34;95295.31;5055041;28;20443;-79
2022/06/16 04:52:52;;;;;;;12.73;10.80;;;;;;;23.16;67.37;95294.38;5068970;28;20453;-79
2022/06/16 04:55:19;;;;;;;13.60;12.30;;;;;;;23.04;67.45;95290.59;5057009;28;20448;-80
2022/06/16 04:57:46;;;;;;;22.17;14.10;;;;;;;23.23;68.00;95286.38;5057292;28;21063;-80
2022/06/16 05:00:16;;;;;;;29.03;19.37;;;;;;;23.41;67.50;95294.69;5065716;28;20465;-80
2022/06/16 05:02:43;;;;;;;20.87;16.73;;;;;;;23.49;66.88;95292.69;5074824;28;20441;-80
2022/06/16 05:05:13;;;;;;;16.23;14.53;;;;;;;23.77;66.34;95297.97;5073905;28;20436;-80
2022/06/16 05:07:40;;;;;;;11.90;10.10;;;;;;;24.00;65.44;95297.63;5074370;28;20800;-80
2022/06/16 05:10:09;;;;;;;14.33;12.83;;;;;;;23.99;65.11;95295.13;5074163;28;20451;-80
2022/06/16 05:12:36;;;;;;;10.47;9.47;;;;;;;24.10;64.23;95292.69;5038449;28;20824;-80
2022/06/16 05:15:03;;;;;;;13.07;10.57;;;;;;;23.91;64.05;95296.16;5073817;28;20452;-80
2022/06/16 05:17:31;;;;;;;16.53;11.00;;;;;;;23.94;64.51;95294.91;5073975;28;20445;-80
2022/06/16 05:19:58;;;;;;;12.73;11.10;;;;;;;23.98;64.88;95296.97;5073608;28;20829;-80
2022/06/16 05:22:25;;;;;;;16.73;12.70;;;;;;;23.97;64.41;95295.31;5073518;28;20795;-80
2022/06/16 05:24:52;;;;;;;16.23;13.13;;;;;;;24.21;63.83;95298.47;5073532;28;20939;-80
2022/06/16 05:27:19;;;;;;;18.17;13.90;;;;;;;24.38;63.58;95299.78;5074005;28;20433;-80
2022/06/16 05:29:46;;;;;;;18.23;14.37;;;;;;;24.70;63.37;95296.25;5073736;28;20452;-80
2022/06/16 05:32:13;;;;;;;19.23;14.50;;;;;;;24.67;63.22;95298.53;5073340;28;20958;-80
2022/06/16 05:34:42;;;;;;;14.87;12.17;;;;;;;24.09;64.17;95299.09;5038015;28;20433;-81
2022/06/16 05:37:09;;;;;;;14.57;12.23;;;;;;;24.33;64.83;95299.56;5073224;28;20606;-81
2022/06/16 05:39:36;;;;;;;14.80;13.17;;;;;;;23.88;66.38;95301.91;5073590;28;20480;-81
2022/06/16 05:42:03;;;;;;;15.23;12.83;;;;;;;24.42;65.88;95298.31;5073492;28;20448;-81
2022/06/16 05:44:30;;;;;;;17.60;13.20;;;;;;;24.34;65.92;95293.19;5073700;28;20437;-80
2022/06/16 05:46:57;;;;;;;13.00;11.63;;;;;;;24.44;66.36;95296.25;5073094;28;20477;-81
2022/06/16 05:49:23;;;;;;;13.13;11.30;;;;;;;24.65;65.75;95300.59;5073408;28;20446;-81
2022/06/16 05:51:52;;;;;;;14.63;13.23;;;;;;;24.50;66.34;95305.34;5073078;28;20438;-81
2022/06/16 05:54:19;;;;;;;16.80;12.93;;;;;;;24.60;66.44;95309.28;5073617;28;20457;-81
2022/06/16 05:56:45;;;;;;;12.77;11.50;;;;;;;24.45;67.71;95302.47;5073182;28;20527;-80
2022/06/16 05:59:12;;;;;;;17.13;14.13;;;;;;;24.07;67.40;95306.50;5073088;28;20452;-80
2022/06/16 06:01:39;;;;;;;13.60;12.20;;;;;;;23.88;69.07;95301.91;5073399;28;20468;-80
2022/06/16 06:04:06;;;;;;;16.17;13.90;;;;;;;23.62;69.32;95296.47;5073148;28;20524;-80
2022/06/16 06:06:33;;;;;;;13.87;12.57;;;;;;;23.49;71.37;95298.03;5073030;28;20444;-81
2022/06/16 06:17:20;;;;;;;18.63;15.23;;;;;;;23.86;70.88;95287.88;5073031;28;20425;-81
2022/06/16 06:19:47;;;;;;;16.10;12.83;;;;;;;24.45;69.74;95287.19;5072741;28;20507;-81
2022/06/16 06:22:19;;;;;;;15.80;14.20;;;;;;;24.53;68.95;95303.06;5072607;28;20977;-81
2022/06/16 06:24:49;;;;;;;15.33;13.40;;;;;;;24.32;68.73;95293.38;5072693;28;20555;-81
2022/06/16 06:27:19;;;;;;;20.57;14.57;;;;;;;24.47;67.40;95305.75;5072737;28;20450;-81
2022/06/16 06:29:47;;;;;;;23.03;15.20;;;;;;;24.84;67.83;95306.97;5072728;28;20805;-81
2022/06/16 06:32:16;;;;;;;17.27;15.47;;;;;;;25.16;65.91;95306.16;5072497;28;20453;-81
2022/06/16 06:34:43;;;;;;;17.33;14.93;;;;;;;24.95;66.22;95303.69;5071969;28;20451;-81
2022/06/16 06:37:12;;;;;;;18.60;16.13;;;;;;;25.07;65.61;95304.72;5072540;28;20472;-81
2022/06/16 06:39:39;;;;;;;17.07;14.90;;;;;;;24.75;65.78;95308.22;5072638;28;20886;-81
2022/06/16 06:42:08;;;;;;;17.07;15.27;;;;;;;24.62;67.58;95299.16;5072687;28;20449;-82
2022/06/16 06:44:36;;;;;;;16.97;13.77;;;;;;;24.99;66.78;95300.41;5072435;28;20934;-81
2022/06/16 06:47:03;;;;;;;19.60;16.23;;;;;;;24.83;66.77;95303.47;5037466;28;20452;-82
2022/06/16 06:49:30;;;;;;;21.03;16.97;;;;;;;24.80;67.13;95305.75;5072205;28;20463;-82
2022/06/16 06:51:57;;;;;;;23.23;18.20;;;;;;;24.99;67.04;95302.25;5072234;28;20448;-81
2022/06/16 06:54:25;;;;;;;17.70;15.87;;;;;;;24.83;66.57;95299.97;5072315;28;20454;-81
2022/06/16 06:56:52;;;;;;;23.13;17.87;;;;;;;24.57;67.59;95295.44;5072248;28;20487;-81
2022/06/16 06:59:21;;;;;;;20.30;16.10;;;;;;;24.93;67.24;95292.31;5072146;28;20444;-81
2022/06/16 07:01:49;;;;;;;19.27;16.70;;;;;;;25.26;64.59;95290.41;5072426;28;20441;-81
2022/06/16 07:04:17;;;;;;;20.10;16.70;;;;;;;25.57;63.90;95291.56;5072469;28;20802;-81
2022/06/16 07:06:44;;;;;;;17.30;15.50;;;;;;;25.95;64.41;95294.28;5072556;28;20471;-81
2022/06/16 07:09:11;;;;;;;17.57;15.77;;;;;;;26.38;61.35;95290.97;5072258;28;20440;-81
2022/06/16 07:11:40;;;;;;;18.90;16.60;;;;;;;26.73;60.25;95297.50;5072212;28;20448;-81
2022/06/16 07:14:07;;;;;;;18.73;16.77;;;;;;;26.72;60.22;95284.28;5072845;28;20536;-81
2022/06/16 07:16:35;;;;;;;19.43;16.80;;;;;;;26.59;60.20;95285.19;5071957;28;20966;-81
2022/06/16 07:19:03;;;;;;;18.67;16.10;;;;;;;25.96;60.11;95292.44;5072466;28;20449;-81
2022/06/16 07:21:30;;;;;;;20.50;17.07;;;;;;;26.31;61.92;95288.28;5072410;28;20947;-82
2022/06/16 07:23:57;;;;;;;21.50;17.10;;;;;;;26.58;59.83;95282.72;5072081;28;20471;-82
2022/06/16 07:26:24;;;;;;;22.07;17.93;;;;;;;26.92;59.09;95276.84;5036656;28;20450;-81
2022/06/16 07:28:52;;;;;;;19.00;16.77;;;;;;;27.26;57.20;95285.44;5072468;28;20453;-81
2022/06/16 07:31:19;;;;;;;19.07;17.10;;;;;;;27.27;56.98;95277.13;5071672;28;20484;-81
2022/06/16 07:33:47;;;;;;;20.70;17.80;;;;;;;27.26;56.52;95272.78;5071857;28;20826;-81
2022/06/16 07:36:14;;;;;;;16.50;14.73;;;;;;;27.32;55.82;95273.75;5072208;28;20445;-81
2022/06/16 07:38:41;;;;;;;19.10;16.60;;;;;;;27.29;55.30;95275.03;5071967;28;20490;-81
2022/06/16 07:43:53;;;;;;;20.53;16.23;;;;;;;26.93;55.50;95280.34;5071912;28;20555;-81
2022/06/16 07:46:21;;;;;;;16.93;15.13;;;;;;;26.83;56.75;95273.59;5072078;28;20488;-81
2022/06/16 07:48:49;;;;;;;17.30;15.50;;;;;;;27.17;55.32;95272.25;5075309;28;20437;-81
2022/06/16 07:51:16;;;;;;;15.97;14.47;;;;;;;27.45;55.23;95265.50;5075630;28;20441;-81
2022/06/16 07:53:42;;;;;;;18.33;16.10;;;;;;;27.70;55.39;95268.13;5075627;28;20523;-81
2022/06/16 07:56:09;;;;;;;17.90;16.17;;;;;;;27.87;54.94;95268.34;5075323;28;20453;-82
2022/06/16 07:58:39;;;;;;;16.83;15.17;;;;;;;27.97;52.86;95265.91;5075458;28;20449;-81
2022/06/16 08:01:07;;;;;;;16.23;14.63;;;;;;;27.34;53.69;95277.03;5075421;28;20491;-82
2022/06/16 08:03:34;;;;;;;18.07;16.03;;;;;;;26.94;53.42;95273.94;5075265;28;20447;-82
2022/06/16 08:06:08;;;;;;;16.80;15.23;;;;;;;27.15;54.66;95260.03;5075898;28;20445;-81
2022/06/16 08:08:35;;;;;;;21.33;17.87;;;;;;;27.41;54.04;95272.41;5075071;28;20540;-82
2022/06/16 08:11:02;;;;;;;17.53;14.23;;;;;;;27.13;51.81;95276.44;5039929;28;20745;-82
2022/06/16 08:13:29;;;;;;;17.07;14.63;;;;;;;27.05;54.07;95276.72;5039799;28;20877;-81
2022/06/16 08:15:56;;;;;;;15.53;13.93;;;;;;;26.90;55.66;95273.53;5075372;28;20450;-82
2022/06/16 08:18:26;;;;;;;17.60;14.77;;;;;;;26.86;54.76;95275.00;5074792;28;20446;-82
2022/06/16 08:20:54;;;;;;;18.00;16.20;;;;;;;26.91;54.44;95277.06;5075036;28;20953;-82
2022/06/16 08:23:22;;;;;;;18.30;16.40;;;;;;;26.61;54.60;95279.63;5074773;28;20437;-82
2022/06/16 08:25:50;;;;;;;18.97;17.00;;;;;;;26.51;55.17;95278.22;5074737;28;20453;-82
2022/06/16 08:28:20;;;;;;;17.20;15.30;;;;;;;26.46;54.51;95278.06;5074660;28;20440;-81
2022/06/16 08:30:48;;;;;;;20.10;16.20;;;;;;;26.63;55.86;95272.97;5074724;28;20528;-82
2022/06/16 08:33:18;;;;;;;17.70;15.70;;;;;;;26.97;54.10;95284.25;5074837;28;20456;-81
2022/06/16 08:35:46;;;;;;;18.33;15.17;;;;;;;26.45;53.90;95283.66;5074430;28;20485;-82
2022/06/16 08:38:14;;;;;;;17.33;15.57;;;;;;;26.24;54.28;95282.13;5074972;28;20866;-82
2022/06/16 08:40:46;;;;;;;18.50;16.37;;;;;;;26.43;55.96;95275.81;5074533;28;21017;-82
2022/06/16 08:43:25;;;;;;;17.67;15.83;;;;;;;26.71;55.27;95286.13;5074727;28;20445;-82
2022/06/16 08:45:56;;;;;;;17.40;15.60;;;;;;;26.54;53.66;95283.16;5074554;28;20441;-82
2022/06/16 08:48:32;;;;;;;17.20;15.40;;;;;;;26.64;53.88;95277.31;5074423;28;20445;-81
2022/06/16 08:51:05;;;;;;;17.27;15.63;;;;;;;26.84;53.85;95277.09;5074458;28;20443;-81
2022/06/16 08:53:56;;;;;;;18.33;16.47;;;;;;;26.58;53.27;95277.34;5074429;28;20438;-81
2022/06/16 08:56:34;;;;;;;21.20;15.90;;;;;;;26.84;54.43;95260.94;5074250;28;20452;-82
2022/06/16 08:59:11;;;;;;;18.73;16.70;;;;;;;27.00;52.75;95265.81;5073700;28;20456;-82
2022/06/16 09:01:44;;;;;;;16.90;15.20;;;;;;;26.99;52.16;95272.25;5073963;28;20543;-82
2022/06/16 09:04:17;;;;;;;17.67;15.80;;;;;;;26.90;52.26;95265.47;5074089;28;20433;-82
2022/06/16 09:06:53;;;;;;;19.93;15.67;;;;;;;26.90;53.24;95276.25;5074321;28;20507;-81
2022/06/16 09:12:38;;;;;;;16.97;15.20;;;;;;;26.94;52.25;95257.75;5074036;28;20451;-81
2022/06/16 09:15:17;;;;;;;17.00;15.20;;;;;;;27.02;50.87;95262.88;5073971;28;20444;-81
2022/06/16 09:18:02;;;;;;;15.37;13.97;;;;;;;27.03;51.02;95259.97;5074240;28;20449;-81
2022/06/16 09:20:35;;;;;;;19.67;15.70;;;;;;;27.29;51.62;95258.84;5038398;28;20483;-82
2022/06/16 09:23:27;;;;;;;16.57;14.97;;;;;;;27.03;51.62;95259.16;5038377;28;20461;-82
2022/06/16 09:26:14;;;;;;;17.60;15.70;;;;;;;26.47;52.52;95260.84;5073365;28;20440;-82
2022/06/16 09:28:48;;;;;;;16.97;15.27;;;;;;;26.30;52.93;95253.50;5073643;28;20445;-82
2022/06/16 09:31:22;;;;;;;15.07;13.57;;;;;;;26.47;52.41;95247.41;5073844;28;20433;-81
2022/06/16 09:33:56;;;;;;;15.60;14.13;;;;;;;26.60;50.53;95237.56;5073834;28;20452;-80
2022/06/16 09:36:26;;;;;;;16.20;14.40;;;;;;;26.80;51.79;95247.09;5073619;28;20931;-82
2022/06/16 09:38:58;;;;;;;16.63;13.30;;;;;;;26.98;53.05;95250.88;5073435;28;20484;-81
2022/06/16 09:44:24;;;;;;;14.53;13.03;;;;;;;26.22;48.62;95249.22;5073275;28;20436;-82
2022/06/16 09:46:57;;;;;;;20.00;14.57;;;;;;;26.45;50.91;95238.72;5073777;28;20877;-82
2022/06/16 09:49:29;;;;;;;17.40;14.97;;;;;;;26.63;51.60;95237.13;5073312;28;20931;-81
2022/06/16 09:52:04;;;;;;;16.60;14.30;;;;;;;26.31;51.73;95229.09;5073261;28;20524;-81
2022/06/16 09:54:35;;;;;;;14.23;12.80;;;;;;;26.54;50.56;95229.31;5073059;28;20944;-81
2022/06/16 09:57:06;;;;;;;16.77;13.43;;;;;;;26.51;49.37;95221.69;5073274;28;20452;-82
2022/06/16 09:59:41;;;;;;;14.70;13.13;;;;;;;26.60;48.40;95224.94;5073231;28;20437;-81
2022/06/16 10:02:18;;;;;;;13.60;12.20;;;;;;;26.54;47.23;95231.19;5072959;28;20494;-81
2022/06/16 10:04:45;;;;;;;12.57;11.37;;;;;;;26.12;46.63;95225.50;5072954;28;20822;-82
2022/06/16 10:07:20;;;;;;;13.70;11.77;;;;;;;25.99;48.74;95222.06;5073088;28;20440;-81
2022/06/16 10:09:52;;;;;;;12.87;11.57;;;;;;;25.96;48.95;95220.63;5071992;28;20993;-80
2022/06/16 10:12:27;;;;;;;15.33;12.60;;;;;;;26.17;50.98;95222.97;5072928;28;20955;-81
2022/06/16 10:15:04;;;;;;;12.73;11.57;;;;;;;26.38;47.82;95223.69;5072684;28;20448;-82
2022/06/16 10:17:33;;;;;;;15.10;11.47;;;;;;;26.50;48.36;95222.72;5054414;28;20463;-81
2022/06/16 10:20:01;;;;;;;12.20;10.93;;;;;;;26.45;48.56;95213.69;5072883;28;20453;-81
2022/06/16 10:22:31;;;;;;;21.07;13.13;;;;;;;26.68;49.06;95208.50;5072419;28;21049;-81
2022/06/16 10:25:07;;;;;;;13.40;12.10;;;;;;;26.70;47.20;95214.47;5072391;28;20488;-81
2022/06/16 10:27:38;;;;;;;15.40;11.17;;;;;;;26.92;46.65;95212.19;5037448;28;20498;-82
2022/06/16 10:30:09;;;;;;;12.00;10.80;;;;;;;27.01;47.38;95213.56;5072748;28;20785;-81
2022/06/16 10:32:40;;;;;;;12.47;11.20;;;;;;;27.17;46.40;95209.44;5072316;28;20807;-81
2022/06/16 10:35:14;;;;;;;12.93;11.67;;;;;;;27.11;46.32;95200.38;5072676;28;20441;-81
2022/06/16 10:37:42;;;;;;;13.03;11.73;;;;;;;27.20;47.10;95205.50;5072353;28;20472;-81
2022/06/16 10:40:15;;;;;;;16.37;11.27;;;;;;;26.89;47.22;95203.72;5037877;28;20444;-82
2022/06/16 10:42:45;;;;;;;14.23;12.07;;;;;;;27.06;48.13;95207.50;5072474;28;20472;-81
2022/06/16 10:45:17;;;;;;;13.20;10.50;;;;;;;26.95;46.41;95205.53;5073135;28;20448;-82
2022/06/16 10:47:49;;;;;;;11.90;10.70;;;;;;;26.92;47.74;95195.22;5072493;28;20947;-81
2022/06/16 10:50:22;;;;;;;12.63;11.10;;;;;;;26.88;46.11;95194.81;5072348;28;20485;-81
2022/06/16 10:52:54;;;;;;;13.90;11.53;;;;;;;26.94;48.23;95202.03;5072507;28;20440;-82
2022/06/16 10:55:25;;;;;;;13.80;10.67;;;;;;;26.96;45.56;95194.53;5072392;28;20953;-82
2022/06/16 10:58:00;;;;;;;14.63;11.63;;;;;;;26.92;48.13;95192.53;5072323;28;20507;-81
2022/06/16 11:00:32;;;;;;;13.27;11.27;;;;;;;26.98;46.21;95187.06;5072602;28;20951;-82
2022/06/16 11:03:14;;;;;;;13.00;11.70;;;;;;;26.73;50.21;95195.19;5072556;28;20501;-81
2022/06/16 11:05:52;;;;;;;13.20;11.80;;;;;;;26.63;46.97;95191.38;5071997;28;20440;-82
2022/06/16 11:08:20;;;;;;;13.30;11.90;;;;;;;26.85;46.66;95181.78;5072108;28;20449;-81
2022/06/16 11:10:53;;;;;;;13.33;12.00;;;;;;;27.13;48.13;95179.44;5072823;28;20437;-82
2022/06/16 11:13:23;;;;;;;15.53;11.77;;;;;;;27.28;45.54;95186.31;5072310;28;20493;-81
2022/06/16 11:15:55;;;;;;;13.07;11.87;;;;;;;27.26;47.08;95183.84;5072231;28;20429;-82
2022/06/16 11:18:25;;;;;;;14.13;12.83;;;;;;;27.09;44.96;95188.19;5072185;28;20437;-82
2022/06/16 11:20:55;;;;;;;13.87;12.60;;;;;;;26.90;47.33;95181.97;5072607;28;20449;-80
2022/06/16 11:23:29;;;;;;;12.40;11.20;;;;;;;27.04;45.81;95177.28;5076342;28;20472;-80
2022/06/16 11:26:01;;;;;;;11.97;10.90;;;;;;;27.11;46.60;95176.13;5075935;28;20818;-80
2022/06/16 11:28:29;;;;;;;13.50;12.10;;;;;;;27.12;47.28;95175.09;5075957;28;20836;-80
2022/06/16 11:31:01;;;;;;;14.17;12.77;;;;;;;27.06;45.48;95172.47;5076345;28;20850;-80
2022/06/16 11:36:27;;;;;;;14.17;12.73;;;;;;;26.86;45.85;95157.34;5075988;28;20440;-81
2022/06/16 11:39:00;;;;;;;14.57;12.30;;;;;;;27.00;47.21;95168.00;5076019;28;20884;-80
2022/06/16 11:41:28;;;;;;;14.70;12.23;;;;;;;27.06;47.82;95169.78;5075776;28;20472;-80
2022/06/16 11:44:14;;;;;;;17.77;12.20;;;;;;;26.83;45.75;95160.47;5075726;28;20445;-80
2022/06/16 11:46:48;;;;;;;13.37;11.50;;;;;;;26.96;48.05;95159.53;5075652;28;20445;-82
2022/06/16 11:49:28;;;;;;;13.27;11.97;;;;;;;26.93;48.12;95162.66;5076015;28;20432;-80
2022/06/16 11:52:08;;;;;;;14.13;12.77;;;;;;;26.53;48.74;95159.56;5075671;28;20429;-80
2022/06/16 11:54:49;;;;;;;13.53;12.20;;;;;;;26.21;48.88;95159.63;5075641;28;20440;-80
2022/06/16 11:57:25;;;;;;;12.90;11.70;;;;;;;26.01;48.79;95169.69;5040111;28;20433;-80
2022/06/16 12:00:18;;;;;;;15.07;13.57;;;;;;;25.84;48.08;95166.75;5075508;28;20428;-81
2022/06/16 12:03:09;;;;;;;14.13;12.77;;;;;;;25.59;48.82;95157.78;4993704;28;20487;-80
2022/06/16 12:05:41;;;;;;;14.93;13.43;;;;;;;25.75;49.43;95151.91;4993888;28;20457;-81
2022/06/16 12:08:29;;;;;;;21.17;14.40;;;;;;;25.77;50.57;95155.22;4994000;28;20440;-80
2022/06/16 12:11:04;;;;;;;14.23;13.03;;;;;;;25.74;48.58;95146.75;4993844;28;21057;-80